createdAt,value
2019-03-30T00:02:18.849Z,23.50
2019-03-30T00:04:48.778Z,23.97
2019-03-30T00:07:18.668Z,19.83
2019-03-30T00:09:48.480Z,17.70
2019-03-30T00:12:18.319Z,22.63
2019-03-30T00:14:50.521Z,20.27
2019-03-30T00:17:20.347Z,21.83
2019-03-30T00:19:50.575Z,20.77
2019-03-30T00:22:20.579Z,26.30
2019-03-30T00:24:50.363Z,20.00
2019-03-30T00:27:20.355Z,17.93
2019-03-30T00:29:50.562Z,20.83
2019-03-30T00:32:20.750Z,23.30
2019-03-30T00:34:50.585Z,22.77
2019-03-30T00:37:20.590Z,26.47
2019-03-30T00:39:50.495Z,27.00
2019-03-30T00:42:20.422Z,24.50
2019-03-30T00:44:50.233Z,24.17
2019-03-30T00:47:20.288Z,24.00
2019-03-30T00:49:50.336Z,24.87
2019-03-30T00:52:20.484Z,21.97
2019-03-30T00:54:50.341Z,23.00
2019-03-30T00:57:20.322Z,19.33
2019-03-30T00:59:50.324Z,22.43
2019-03-30T01:02:20.185Z,26.63
2019-03-30T01:04:50.214Z,22.20
2019-03-30T01:07:20.461Z,24.03
2019-03-30T01:09:50.495Z,25.00
2019-03-30T01:12:20.760Z,23.90
2019-03-30T01:14:50.585Z,24.23
2019-03-30T01:17:20.604Z,24.87
2019-03-30T01:20:02.195Z,25.00
2019-03-30T01:22:24.292Z,21.37
2019-03-30T01:24:54.327Z,22.17
2019-03-30T01:27:24.252Z,19.67
2019-03-30T01:29:54.225Z,21.97
2019-03-30T01:32:24.060Z,24.13
2019-03-30T01:34:54.002Z,21.93
2019-03-30T01:37:26.728Z,24.33
2019-03-30T01:39:56.480Z,22.27
2019-03-30T01:42:26.481Z,21.37
2019-03-30T01:44:56.526Z,22.93
2019-03-30T01:47:26.636Z,23.10
2019-03-30T01:49:56.492Z,21.27
2019-03-30T01:52:26.822Z,22.07
2019-03-30T01:54:56.893Z,20.63
2019-03-30T01:57:26.907Z,22.50
2019-03-30T01:59:57.894Z,21.40
2019-03-30T02:02:27.991Z,22.43
2019-03-30T02:04:57.833Z,23.70
2019-03-30T02:07:28.115Z,24.57
2019-03-30T02:09:57.990Z,24.53
2019-03-30T02:12:27.920Z,22.70
2019-03-30T02:14:57.824Z,23.13
2019-03-30T02:17:27.677Z,23.30
2019-03-30T02:19:57.520Z,24.10
2019-03-30T02:22:28.522Z,23.30
2019-03-30T02:24:58.518Z,24.00
2019-03-30T02:27:28.592Z,26.47
2019-03-30T02:29:59.738Z,26.83
2019-03-30T02:32:31.980Z,22.53
2019-03-30T02:35:01.782Z,27.93
2019-03-30T02:37:31.753Z,22.00
2019-03-30T02:40:01.657Z,23.60
2019-03-30T02:42:32.752Z,25.27
2019-03-30T02:45:02.670Z,24.47
2019-03-30T02:47:32.600Z,26.87
2019-03-30T02:50:02.694Z,25.00
2019-03-30T02:52:33.175Z,22.47
2019-03-30T02:55:03.062Z,26.17
2019-03-30T02:57:33.539Z,25.43
2019-03-30T03:00:04.254Z,20.57
2019-03-30T03:02:38.972Z,24.17
2019-03-30T03:05:09.933Z,23.93
2019-03-30T03:07:43.856Z,26.80
2019-03-30T03:10:14.962Z,24.93
2019-03-30T03:12:46.778Z,28.20
2019-03-30T03:15:16.737Z,28.77
2019-03-30T03:17:47.125Z,25.53
2019-03-30T03:20:17.396Z,27.20
2019-03-30T03:22:47.238Z,26.77
2019-03-30T03:25:18.308Z,28.40
2019-03-30T03:27:48.156Z,30.17
2019-03-30T03:30:19.440Z,27.93
2019-03-30T03:32:49.386Z,25.40
2019-03-30T03:35:19.214Z,21.83
2019-03-30T03:37:49.133Z,26.30
2019-03-30T03:40:19.384Z,23.13
2019-03-30T03:42:49.339Z,26.07
2019-03-30T03:45:19.132Z,27.53
2019-03-30T03:47:49.115Z,28.50
2019-03-30T03:50:48.687Z,27.53
2019-03-30T03:53:18.514Z,25.93
2019-03-30T03:55:50.158Z,24.77
2019-03-30T03:58:21.580Z,25.27
2019-03-30T04:00:53.847Z,29.47
2019-03-30T04:03:26.636Z,25.73
2019-03-30T04:05:59.115Z,26.63
2019-03-30T04:08:31.711Z,27.43
2019-03-30T04:11:02.645Z,28.90
2019-03-30T04:13:32.641Z,25.80
2019-03-30T04:16:02.658Z,25.30
2019-03-30T04:18:32.573Z,29.63
2019-03-30T04:21:02.494Z,28.37
2019-03-30T04:23:32.614Z,24.27
2019-03-30T04:26:02.578Z,26.90
2019-03-30T04:28:32.605Z,26.77
2019-03-30T04:31:02.420Z,30.77
2019-03-30T04:33:32.335Z,25.77
2019-03-30T04:36:02.280Z,31.90
2019-03-30T04:38:32.114Z,25.17
2019-03-30T04:41:02.087Z,28.77
2019-03-30T04:43:33.799Z,50.10
2019-03-30T04:46:03.791Z,33.97
2019-03-30T04:48:34.111Z,27.90
2019-03-30T04:51:03.946Z,29.63
2019-03-30T04:53:34.058Z,31.80
2019-03-30T04:56:04.498Z,30.90
2019-03-30T04:58:35.822Z,28.60
2019-03-30T05:01:05.689Z,27.10
2019-03-30T05:03:35.561Z,28.00
2019-03-30T05:06:05.386Z,27.63
2019-03-30T05:08:35.449Z,25.97
2019-03-30T05:11:05.389Z,31.93
2019-03-30T05:13:35.294Z,29.73
2019-03-30T05:16:05.147Z,28.50
2019-03-30T05:18:35.044Z,30.63
2019-03-30T05:21:06.727Z,28.33
2019-03-30T05:23:40.167Z,31.47
2019-03-30T05:26:10.171Z,30.37
2019-03-30T05:28:42.814Z,33.07
2019-03-30T05:31:12.842Z,30.53
2019-03-30T05:33:45.102Z,29.53
2019-03-30T05:36:15.141Z,28.07
2019-03-30T05:38:47.487Z,26.20
2019-03-30T05:41:17.470Z,30.00
2019-03-30T05:43:48.618Z,29.63
2019-03-30T05:46:18.569Z,35.50
2019-03-30T05:48:48.453Z,35.07
2019-03-30T05:51:18.402Z,30.20
2019-03-30T05:53:48.229Z,37.73
2019-03-30T05:56:18.186Z,28.70
2019-03-30T05:58:50.149Z,29.73
2019-03-30T06:01:21.084Z,30.67
2019-03-30T06:03:50.899Z,25.90
2019-03-30T06:06:20.905Z,34.03
2019-03-30T06:08:50.782Z,29.80
2019-03-30T06:11:20.659Z,30.17
2019-03-30T06:13:50.584Z,29.37
2019-03-30T06:16:20.621Z,30.43
2019-03-30T06:18:50.630Z,30.07
2019-03-30T06:21:21.481Z,28.77
2019-03-30T06:23:51.327Z,28.33
2019-03-30T06:26:21.282Z,29.50
2019-03-30T06:28:51.199Z,31.77
2019-03-30T06:31:21.194Z,28.80
2019-03-30T06:33:51.202Z,28.27
2019-03-30T06:36:21.006Z,29.27
2019-03-30T06:38:52.007Z,29.10
2019-03-30T06:41:21.922Z,27.10
2019-03-30T06:43:51.920Z,32.10
2019-03-30T06:46:21.750Z,30.60
2019-03-30T06:48:51.553Z,30.87
2019-03-30T06:51:21.542Z,27.00
2019-03-30T06:53:51.481Z,27.97
2019-03-30T06:56:21.730Z,24.67
2019-03-30T06:58:51.757Z,29.00
2019-03-30T07:01:21.975Z,24.33
2019-03-30T07:03:52.008Z,23.70
2019-03-30T07:06:22.208Z,22.10
2019-03-30T07:08:55.130Z,26.43
2019-03-30T07:11:27.578Z,26.93
2019-03-30T07:14:00.689Z,25.40
2019-03-30T07:16:34.423Z,28.17
2019-03-30T07:19:05.597Z,28.05
2019-03-30T07:21:35.464Z,25.43
2019-03-30T07:24:05.361Z,25.15
2019-03-30T07:26:36.109Z,27.35
2019-03-30T07:29:06.073Z,28.45
2019-03-30T07:31:36.008Z,27.80
2019-03-30T07:34:06.007Z,27.60
2019-03-30T07:36:35.805Z,27.10
2019-03-30T07:39:09.200Z,28.92
2019-03-30T07:41:39.663Z,27.55
2019-03-30T07:44:11.800Z,29.32
2019-03-30T07:46:41.811Z,29.77
2019-03-30T07:49:11.705Z,32.25
2019-03-30T07:51:43.727Z,30.95
2019-03-30T07:54:15.101Z,30.60
2019-03-30T07:56:48.158Z,32.48
2019-03-30T07:59:18.083Z,35.75
2019-03-30T08:01:49.182Z,27.42
2019-03-30T08:04:19.080Z,29.07
2019-03-30T08:06:49.044Z,30.23
2019-03-30T08:09:19.277Z,29.12
2019-03-30T08:11:49.348Z,34.30
2019-03-30T08:14:19.380Z,33.67
2019-03-30T08:16:49.250Z,30.95
2019-03-30T08:19:21.793Z,30.70
2019-03-30T17:35:31.037Z,23.60
2019-03-30T17:38:03.437Z,19.87
2019-03-30T17:40:33.504Z,18.47
2019-03-30T17:43:03.382Z,21.10
2019-03-30T17:45:33.555Z,20.77
2019-03-30T17:48:03.559Z,23.67
2019-03-30T17:50:33.953Z,19.87
2019-03-30T17:53:04.304Z,21.47
2019-03-30T17:55:34.456Z,20.20
2019-03-30T17:58:12.842Z,23.07
2019-03-30T18:00:37.735Z,25.80
2019-03-30T18:03:08.919Z,20.37
2019-03-30T18:05:44.745Z,22.70
2019-03-30T18:08:15.210Z,21.67
2019-03-30T18:10:47.714Z,21.93
2019-03-30T18:13:17.676Z,24.50
2019-03-30T18:15:47.794Z,21.40
2019-03-30T18:18:17.742Z,23.63
2019-03-30T18:20:49.980Z,22.13
2019-03-30T18:23:19.810Z,21.97
2019-03-30T18:25:49.873Z,22.53
2019-03-30T18:28:26.935Z,21.83
2019-03-30T18:30:52.625Z,21.10
2019-03-30T18:33:22.830Z,23.20
2019-03-30T18:35:53.289Z,23.20
2019-03-30T18:38:24.743Z,24.40
2019-03-30T18:40:54.866Z,23.40
2019-03-30T18:43:26.137Z,22.37
2019-03-30T18:45:56.245Z,22.27
2019-03-30T18:48:27.079Z,20.57
2019-03-30T18:50:57.527Z,22.17
2019-03-30T18:53:27.529Z,20.17
2019-03-30T18:55:57.480Z,22.83
2019-03-30T18:58:40.750Z,26.03
2019-03-30T19:01:01.453Z,26.73
2019-03-30T19:03:32.713Z,20.93
2019-03-30T19:06:03.222Z,27.73
2019-03-30T19:08:34.705Z,39.97
2019-03-30T19:11:05.714Z,32.17
2019-03-30T19:13:39.990Z,30.43
2019-03-30T19:16:09.991Z,28.37
2019-03-30T19:18:39.997Z,27.50
2019-03-30T19:21:10.784Z,21.53
2019-03-30T19:23:41.580Z,27.47
2019-03-30T19:26:11.717Z,29.87
2019-03-30T19:28:55.308Z,26.53
2019-03-30T19:31:13.661Z,28.00
2019-03-30T19:33:43.647Z,27.57
2019-03-30T19:36:13.631Z,22.83
2019-03-30T19:38:43.521Z,39.97
2019-03-30T19:41:13.589Z,39.97
2019-03-30T19:43:43.505Z,34.90
2019-03-30T19:46:13.473Z,32.73
2019-03-30T19:48:43.649Z,33.60
2019-03-30T19:51:13.692Z,34.73
2019-03-30T19:53:43.643Z,47.90
2019-03-30T19:56:13.498Z,36.20
2019-03-30T19:58:43.419Z,35.80
2019-03-30T20:01:15.214Z,33.93
2019-03-30T20:03:45.091Z,36.97
2019-03-30T20:06:14.963Z,39.20
2019-03-30T20:08:45.026Z,34.87
2019-03-30T20:11:14.864Z,31.20
2019-03-30T20:13:44.836Z,34.43
2019-03-30T20:16:14.758Z,31.23
2019-03-30T20:18:44.747Z,32.13
2019-03-30T20:21:14.573Z,32.17
2019-03-30T20:23:44.672Z,35.00
2019-03-30T20:26:21.962Z,31.93
2019-03-30T20:28:51.813Z,36.33
2019-03-30T20:31:21.827Z,34.50
2019-03-30T20:33:51.815Z,32.30
2019-03-30T20:36:21.899Z,36.13
2019-03-30T20:38:51.745Z,31.57
2019-03-30T20:41:21.714Z,33.63
2019-03-30T20:43:53.090Z,33.27
2019-03-30T20:46:23.194Z,28.40
2019-03-30T20:48:53.081Z,29.90
2019-03-30T20:51:23.055Z,31.50
2019-03-30T20:53:52.897Z,30.03
2019-03-30T20:56:22.812Z,32.90
2019-03-30T20:58:52.667Z,32.57
2019-03-30T21:01:22.740Z,31.03
2019-03-30T21:03:52.703Z,34.97
2019-03-30T21:06:22.786Z,30.80
2019-03-30T21:08:52.779Z,38.13
2019-03-30T21:11:22.634Z,31.67
2019-03-30T21:13:52.583Z,33.33
2019-03-30T21:16:22.476Z,32.33
2019-03-30T21:18:52.532Z,32.63
2019-03-30T21:21:24.757Z,31.03
2019-03-30T21:23:54.717Z,29.73
2019-03-30T21:26:28.650Z,31.03
2019-03-30T21:28:58.219Z,27.37
2019-03-30T21:31:28.610Z,28.27
2019-03-30T21:33:58.901Z,30.77
2019-03-30T21:36:28.761Z,33.00
2019-03-30T21:38:58.818Z,28.70
2019-03-30T21:41:29.102Z,29.97
2019-03-30T21:44:00.442Z,29.73
2019-03-30T21:46:30.253Z,31.67
2019-03-30T21:49:00.299Z,28.00
2019-03-30T21:51:30.175Z,30.73
2019-03-30T21:54:00.167Z,32.53
2019-03-30T21:56:30.061Z,27.83
2019-03-30T21:58:59.954Z,28.10
2019-03-30T22:01:30.035Z,31.43
2019-03-30T22:03:59.964Z,27.90
2019-03-30T22:06:29.917Z,26.80
2019-03-30T22:08:59.846Z,31.27
2019-03-30T22:11:29.849Z,28.57
2019-03-30T22:13:59.705Z,29.97
2019-03-30T22:16:29.870Z,30.00
2019-03-30T22:18:59.683Z,31.57
2019-03-30T22:21:29.711Z,27.10
2019-03-30T22:24:00.128Z,24.07
2019-03-30T22:26:30.306Z,30.93
2019-03-30T22:29:00.305Z,30.40
2019-03-30T22:31:30.283Z,26.77
2019-03-30T22:34:01.678Z,31.27
2019-03-30T22:36:31.561Z,24.07
2019-03-30T22:39:01.477Z,27.73
2019-03-30T22:41:31.720Z,26.60
2019-03-30T22:44:01.642Z,24.60
2019-03-30T22:46:34.635Z,27.57
2019-03-30T22:49:04.499Z,36.87
2019-03-30T22:51:34.591Z,25.93
2019-03-30T22:54:04.431Z,26.33
2019-03-30T22:56:34.590Z,32.47
2019-03-30T22:59:04.445Z,31.63
2019-03-30T23:01:34.480Z,29.83
2019-03-30T23:04:04.654Z,29.30
2019-03-30T23:06:35.062Z,25.83
2019-03-30T23:09:06.469Z,23.40
2019-03-30T23:11:36.686Z,25.00
2019-03-30T23:14:06.550Z,24.27
2019-03-30T23:16:36.545Z,27.00
2019-03-30T23:19:06.381Z,30.10
2019-03-30T23:21:36.516Z,27.37
2019-03-30T23:24:06.414Z,26.03
2019-03-30T23:26:38.598Z,27.57
2019-03-30T23:29:09.700Z,26.20
2019-03-30T23:31:39.737Z,26.67
2019-03-30T23:34:10.024Z,25.07
2019-03-30T23:36:39.925Z,24.37
2019-03-30T23:39:09.842Z,27.53
2019-03-30T23:41:39.793Z,28.63
2019-03-30T23:44:09.711Z,26.57
2019-03-30T23:46:40.410Z,27.23
2019-03-30T23:49:10.176Z,28.53
2019-03-30T23:51:40.145Z,30.77
2019-03-30T23:54:17.910Z,26.27
2019-03-30T23:56:53.063Z,29.50
2019-03-30T23:59:22.871Z,22.93
